Terminal Aerodrome Forecast
Issued by NWS Sterling, VA

Current Version | Previous Version | Graphics & Text | Print | Product List | Glossary On
Versions: 1 2 3 4 5 6 7 8 9 10 11 12 13 14 15 16 17 18 19 20 21 22 23
709
FTUS41 KLWX 141725
TAFIAD
TAF
KIAD 141725Z 1418/1524 32014G20KT P6SM SCT040
     FM142200 33008KT P6SM SCT200
     FM150300 36004KT P6SM BKN150
     FM151200 17004KT P6SM OVC050
     FM152100 23005KT P6SM SCT090=

USA.gov is the U.S. government's official web portal to all federal, state and local government web resources and services.